Time;durP1;ratioP1;P1;durP2;ratioP2;P2;SDS_P1;SDS_P2;PMS_P1;PMS_P2;Temp;Humidity;BMP_temperature;BMP_pressure;BME280_temperature;BME280_humidity;BME280_pressure;Samples;Min_cycle;Max_cycle;Signal;HPM_P1;HPM_P2
2023/09/25 00:01:24;;;;;;;0.98;0.60;;;21.70;77.50;;;;;;5952512;22;45323;-61
2023/09/25 00:04:12;;;;;;;0.93;0.60;;;21.80;77.80;;;;;;5955179;22;48296;-60
2023/09/25 00:06:44;;;;;;;0.55;0.50;;;21.80;77.30;;;;;;5921326;22;45311;-61
2023/09/25 00:09:40;;;;;;;1.25;0.75;;;21.80;77.70;;;;;;5963509;22;45367;-60
2023/09/25 00:12:35;;;;;;;2.50;0.90;;;21.80;77.50;;;;;;5958931;22;45297;-59
2023/09/25 00:15:52;;;;;;;1.02;0.52;;;21.80;77.40;;;;;;5944656;22;45483;-60
2023/09/25 00:18:49;;;;;;;0.80;0.60;;;21.80;77.80;;;;;;5890207;22;45274;-60
2023/09/25 00:21:18;;;;;;;1.60;0.68;;;21.80;77.80;;;;;;5871429;22;45435;-60
2023/09/25 00:23:45;;;;;;;0.95;0.57;;;21.80;77.30;;;;;;5854162;22;45465;-60
2023/09/25 00:26:49;;;;;;;1.25;0.70;;;21.80;77.60;;;;;;5903085;22;46765;-60
2023/09/25 00:29:18;;;;;;;0.68;0.60;;;21.80;78.20;;;;;;5896421;22;45537;-59
2023/09/25 00:31:45;;;;;;;0.80;0.50;;;21.80;77.40;;;;;;5881696;22;45169;-60
2023/09/25 00:34:41;;;;;;;1.90;0.77;;;21.80;77.50;;;;;;5871578;22;45221;-60
2023/09/25 00:37:18;;;;;;;1.17;0.70;;;21.80;77.50;;;;;;5847907;22;46324;-61
2023/09/25 00:39:55;;;;;;;0.90;0.52;;;21.80;77.90;;;;;;5854168;22;45431;-60
2023/09/25 00:42:41;;;;;;;1.05;0.60;;;21.80;77.50;;;;;;5905981;22;45334;-60
2023/09/25 00:45:18;;;;;;;0.95;0.60;;;21.80;77.60;;;;;;5871419;22;45292;-61
2023/09/25 00:48:06;;;;;;;0.70;0.50;;;21.80;77.80;;;;;;5872667;22;47283;-60
2023/09/25 00:50:48;;;;;;;0.80;0.50;;;21.80;77.60;;;;;;5914371;22;45296;-60
2023/09/25 00:53:20;;;;;;;1.05;0.68;;;21.80;77.00;;;;;;5863705;22;45094;-60
2023/09/25 00:56:15;;;;;;;1.52;0.65;;;21.80;77.20;;;;;;5878121;22;45017;-60
2023/09/25 00:59:14;;;;;;;1.05;0.65;;;21.80;76.90;;;;;;5841494;22;45703;-60
2023/09/25 01:01:51;;;;;;;1.65;0.52;;;21.80;76.70;;;;;;5914791;22;45284;-60
2023/09/25 01:07:25;;;;;;;1.25;0.80;;;21.80;77.20;;;;;;5848104;22;45432;-59
2023/09/25 01:10:19;;;;;;;1.38;0.60;;;21.80;76.80;;;;;;5891493;22;47431;-60
2023/09/25 01:13:11;;;;;;;0.85;0.50;;;21.80;76.50;;;;;;5885844;22;45355;-60
2023/09/25 01:15:39;;;;;;;0.93;0.55;;;21.70;77.00;;;;;;5855205;22;45400;-60
2023/09/25 01:18:36;;;;;;;1.48;0.73;;;21.80;76.60;;;;;;5926177;22;45303;-60
2023/09/25 01:21:33;;;;;;;0.98;0.70;;;21.80;76.80;;;;;;5876773;22;45346;-60
2023/09/25 01:27:54;;;;;;;0.95;0.70;;;21.80;76.50;;;;;;5853155;22;45341;-60
2023/09/25 01:30:40;;;;;;;1.80;0.82;;;21.80;76.70;;;;;;5906458;22;45097;-60
2023/09/25 01:33:08;;;;;;;1.13;0.60;;;21.80;76.50;;;;;;5930339;22;46317;-60
2023/09/25 01:35:58;;;;;;;0.80;0.60;;;21.80;76.40;;;;;;5846886;22;45398;-60
2023/09/25 01:38:25;;;;;;;1.00;0.60;;;21.80;76.40;;;;;;5866218;22;45263;-60
2023/09/25 01:41:08;;;;;;;1.17;0.82;;;21.80;76.50;;;;;;5895250;22;45132;-60
2023/09/25 01:44:00;;;;;;;1.02;0.70;;;21.70;76.20;;;;;;5848917;22;47181;-60
2023/09/25 01:46:37;;;;;;;0.90;0.52;;;21.70;76.30;;;;;;5936830;22;45452;-60
2023/09/25 01:49:26;;;;;;;0.95;0.50;;;21.80;76.50;;;;;;5858025;22;45299;-60
2023/09/25 01:52:17;;;;;;;1.10;0.50;;;21.80;76.60;;;;;;5911659;22;45317;-60
2023/09/25 01:54:51;;;;;;;0.45;0.25;;;21.80;76.40;;;;;;5870540;22;45361;-60
2023/09/25 01:57:37;;;;;;;1.27;0.47;;;21.80;75.90;;;;;;5860044;22;45368;-60
2023/09/25 02:00:19;;;;;;;1.08;0.55;;;21.80;75.80;;;;;;5872789;22;45393;-61
2023/09/25 02:02:46;;;;;;;1.55;0.60;;;21.70;76.00;;;;;;5875207;22;45149;-60
2023/09/25 02:05:28;;;;;;;1.00;0.50;;;21.70;75.70;;;;;;5893730;22;46597;-60
2023/09/25 02:07:55;;;;;;;0.90;0.60;;;21.70;75.60;;;;;;5887150;22;45558;-59
2023/09/25 02:11:08;;;;;;;1.95;0.65;;;21.70;75.40;;;;;;5900023;22;45287;-60
2023/09/25 02:13:41;;;;;;;1.42;0.70;;;21.70;75.10;;;;;;5891574;22;45308;-60
2023/09/25 02:16:43;;;;;;;2.03;0.77;;;21.70;75.20;;;;;;5936362;22;46708;-60
2023/09/25 02:19:29;;;;;;;0.98;0.50;;;21.70;74.80;;;;;;5918172;22;45255;-59
2023/09/25 02:22:26;;;;;;;0.50;0.50;;;21.70;74.50;;;;;;5914831;22;45192;-59
2023/09/25 02:25:29;;;;;;;2.42;0.50;;;21.70;74.50;;;;;;5871618;22;45206;-60
2023/09/25 02:28:13;;;;;;;0.70;0.52;;;21.70;74.30;;;;;;5873712;22;46185;-60
2023/09/25 02:30:39;;;;;;;0.55;0.50;;;21.70;74.50;;;;;;5853219;22;45155;-60
2023/09/25 02:33:15;;;;;;;2.60;0.70;;;21.70;74.70;;;;;;5866906;22;45357;-59
2023/09/25 02:35:42;;;;;;;1.42;0.65;;;21.70;74.50;;;;;;5863386;22;45057;-60
2023/09/25 02:38:21;;;;;;;1.73;0.75;;;21.60;74.20;;;;;;5868032;22;46381;-59
2023/09/25 02:40:48;;;;;;;1.27;0.50;;;21.70;74.20;;;;;;5887822;22;45048;-60
2023/09/25 02:43:15;;;;;;;0.60;0.57;;;21.70;74.10;;;;;;5884387;22;45277;-60
2023/09/25 02:49:36;;;;;;;1.20;0.80;;;21.70;73.80;;;;;;5812000;22;45331;-59
2023/09/25 02:52:18;;;;;;;1.45;0.60;;;21.60;73.90;;;;;;5885359;22;45321;-60
2023/09/25 02:54:45;;;;;;;1.83;0.75;;;21.70;73.90;;;;;;5891715;22;45357;-60
2023/09/25 02:57:47;;;;;;;1.60;0.90;;;21.60;74.00;;;;;;5893802;22;45287;-60
2023/09/25 03:00:14;;;;;;;1.13;0.60;;;21.70;73.80;;;;;;5850879;22;47378;-60
2023/09/25 03:03:07;;;;;;;0.70;0.60;;;21.70;74.00;;;;;;5873132;22;45265;-60
2023/09/25 03:06:15;;;;;;;1.45;0.50;;;21.70;73.70;;;;;;5909121;22;45310;-59
2023/09/25 03:09:14;;;;;;;0.55;0.55;;;21.70;73.80;;;;;;5908495;22;45241;-60
2023/09/25 03:11:55;;;;;;;0.63;0.50;;;21.70;73.50;;;;;;5886126;22;46598;-60
2023/09/25 03:14:50;;;;;;;0.65;0.50;;;21.70;73.50;;;;;;5870654;22;45066;-60
2023/09/25 03:17:36;;;;;;;1.50;0.60;;;21.70;73.40;;;;;;5872269;22;45246;-60
2023/09/25 03:20:19;;;;;;;1.00;0.60;;;21.70;73.10;;;;;;5886923;22;45354;-60
2023/09/25 03:23:11;;;;;;;0.50;0.45;;;21.60;72.90;;;;;;5853613;22;45663;-60
2023/09/25 03:25:55;;;;;;;0.70;0.50;;;21.60;74.20;;;;;;5853756;22;45241;-60
2023/09/25 03:28:23;;;;;;;0.82;0.57;;;21.60;72.90;;;;;;5868284;22;45385;-60
2023/09/25 03:30:51;;;;;;;1.23;0.73;;;21.60;73.10;;;;;;5895438;22;45380;-59
2023/09/25 03:33:45;;;;;;;0.60;0.50;;;21.60;72.90;;;;;;5880915;22;45702;-59
2023/09/25 03:36:28;;;;;;;1.38;0.70;;;21.60;72.90;;;;;;5878790;22;45252;-60
2023/09/25 03:38:56;;;;;;;0.80;0.63;;;21.60;72.90;;;;;;5886395;22;45278;-60
2023/09/25 03:41:52;;;;;;;1.40;0.80;;;21.60;72.80;;;;;;5891875;22;45096;-60
2023/09/25 03:44:39;;;;;;;1.23;0.60;;;21.60;72.90;;;;;;5868403;22;46510;-59
2023/09/25 03:47:38;;;;;;;1.10;0.60;;;21.60;72.60;;;;;;5919282;22;45269;-59
2023/09/25 03:50:17;;;;;;;1.35;0.70;;;21.60;72.40;;;;;;5945032;22;45259;-60
2023/09/25 03:52:46;;;;;;;0.52;0.38;;;21.60;72.50;;;;;;5872389;22;45354;-60
2023/09/25 03:55:45;;;;;;;1.25;0.60;;;21.60;72.70;;;;;;5882364;22;46154;-59
2023/09/25 04:01:32;;;;;;;0.73;0.50;;;21.60;72.70;;;;;;5879510;22;45120;-59
2023/09/25 04:03:59;;;;;;;0.82;0.43;;;21.60;72.80;;;;;;5881339;22;45472;-60
2023/09/25 04:06:27;;;;;;;1.35;0.70;;;21.70;73.00;;;;;;5883788;22;45660;-59
2023/09/25 04:09:24;;;;;;;0.98;0.65;;;21.70;73.10;;;;;;5883226;22;45216;-59
2023/09/25 04:12:19;;;;;;;1.23;0.63;;;21.70;72.60;;;;;;5891899;22;45172;-59
2023/09/25 04:15:18;;;;;;;0.52;0.30;;;21.70;72.60;;;;;;5868524;22;45377;-60
2023/09/25 04:18:18;;;;;;;0.73;0.40;;;21.70;72.70;;;;;;5900964;22;46112;-59
2023/09/25 04:21:26;;;;;;;0.80;0.60;;;21.70;72.10;;;;;;5937092;22;45217;-61
2023/09/25 04:24:10;;;;;;;1.77;0.57;;;21.70;72.10;;;;;;5878769;22;45282;-60
2023/09/25 04:26:59;;;;;;;0.60;0.50;;;21.70;72.10;;;;;;5880592;22;45434;-60
2023/09/25 04:29:33;;;;;;;1.35;0.63;;;21.70;72.90;;;;;;5869555;22;46369;-60
2023/09/25 04:32:25;;;;;;;1.00;0.50;;;21.70;72.80;;;;;;5870280;22;45294;-59
2023/09/25 04:35:22;;;;;;;0.93;0.55;;;21.70;72.50;;;;;;5835985;22;45558;-59
2023/09/25 04:37:49;;;;;;;2.30;0.60;;;21.70;72.50;;;;;;5850981;22;45269;-60
2023/09/25 04:40:36;;;;;;;0.70;0.50;;;21.70;72.60;;;;;;5880337;22;46220;-59
2023/09/25 04:45:43;;;;;;;1.58;0.75;;;21.70;72.30;;;;;;5842626;22;45637;-59
2023/09/25 04:48:54;;;;;;;1.95;0.60;;;21.70;72.00;;;;;;5887039;22;45057;-59
2023/09/25 04:51:25;;;;;;;0.73;0.52;;;21.70;70.90;;;;;;5877292;22;45467;-60
2023/09/25 04:53:53;;;;;;;0.88;0.50;;;21.60;69.70;;;;;;5903811;22;45338;-59
2023/09/25 04:56:36;;;;;;;1.55;0.90;;;21.60;69.40;;;;;;5883605;22;45444;-59
2023/09/25 04:59:05;;;;;;;0.60;0.50;;;21.60;67.80;;;;;;5856762;22;45245;-59
2023/09/25 05:01:54;;;;;;;1.45;0.75;;;21.60;67.60;;;;;;5931467;22;45771;-59
2023/09/25 05:04:21;;;;;;;1.40;0.75;;;21.50;66.20;;;;;;5880930;22;45367;-59
2023/09/25 05:07:08;;;;;;;1.98;0.60;;;21.60;66.70;;;;;;5890346;22;45441;-59
2023/09/25 05:09:36;;;;;;;1.63;0.60;;;21.60;65.60;;;;;;5907377;22;45140;-59
2023/09/25 05:12:08;;;;;;;1.15;0.60;;;21.60;65.90;;;;;;5917591;22;46951;-61
2023/09/25 05:15:30;;;;;;;0.50;0.50;;;21.50;66.00;;;;;;5847922;22;45354;-61
2023/09/25 05:18:00;;;;;;;0.80;0.75;;;21.50;65.70;;;;;;5905178;22;45209;-61
2023/09/25 05:20:57;;;;;;;0.70;0.65;;;21.60;68.30;;;;;;5914163;22;45357;-61
2023/09/25 05:23:55;;;;;;;1.58;0.60;;;21.60;69.60;;;;;;5954120;22;46568;-60
2023/09/25 05:27:07;;;;;;;1.75;0.50;;;21.70;70.90;;;;;;5879428;22;45685;-60
2023/09/25 05:29:46;;;;;;;1.75;0.70;;;21.70;71.50;;;;;;5879144;22;45364;-59
2023/09/25 05:32:32;;;;;;;1.50;0.60;;;21.70;71.90;;;;;;5927381;22;45505;-63
2023/09/25 05:37:45;;;;;;;1.60;0.68;;;21.80;72.60;;;;;;5875497;22;45359;-60
2023/09/25 05:40:40;;;;;;;2.20;0.88;;;21.80;73.50;;;;;;5912485;22;45202;-60
2023/09/25 05:43:08;;;;;;;1.13;0.50;;;21.80;74.30;;;;;;5913951;22;45261;-59
2023/09/25 05:45:42;;;;;;;1.30;0.70;;;21.90;74.50;;;;;;5931673;22;46188;-59
2023/09/25 05:48:33;;;;;;;2.78;0.65;;;21.80;74.80;;;;;;5930885;22;45358;-59
2023/09/25 05:51:22;;;;;;;2.40;0.75;;;21.90;75.40;;;;;;5908875;22;45304;-59
2023/09/25 05:59:34;;;;;;;1.02;0.73;;;21.90;75.20;;;;;;5927198;22;45376;-60
2023/09/25 06:02:11;;;;;;;2.15;0.73;;;21.90;75.30;;;;;;5943520;22;45416;-60
2023/09/25 06:04:38;;;;;;;3.22;0.82;;;21.90;75.40;;;;;;5964791;22;45364;-60
2023/09/25 06:07:26;;;;;;;1.13;0.80;;;21.90;75.20;;;;;;5931945;22;47652;-61
2023/09/25 06:10:24;;;;;;;4.28;0.75;;;21.90;75.30;;;;;;5926272;22;45384;-60
2023/09/25 06:13:18;;;;;;;3.00;0.80;;;22.00;75.20;;;;;;5955698;22;45362;-60
2023/09/25 06:15:47;;;;;;;2.58;0.90;;;22.00;75.90;;;;;;5898459;22;45413;-59
2023/09/25 06:18:40;;;;;;;3.50;1.00;;;22.10;75.10;;;;;;5993597;22;47509;-58
2023/09/25 06:21:29;;;;;;;1.00;0.70;;;22.10;75.60;;;;;;5936287;22;45558;-58
2023/09/25 06:23:58;;;;;;;1.52;0.80;;;22.10;74.40;;;;;;5890947;22;45329;-59
2023/09/25 06:26:53;;;;;;;0.85;0.60;;;22.10;74.20;;;;;;5919235;22;45346;-58
2023/09/25 06:29:22;;;;;;;1.42;0.80;;;22.00;73.80;;;;;;5929996;22;47527;-59
2023/09/25 06:31:49;;;;;;;1.38;0.90;;;21.90;73.70;;;;;;5926904;22;45424;-59
2023/09/25 06:34:38;;;;;;;1.98;0.95;;;21.90;73.50;;;;;;5926679;22;45498;-58
2023/09/25 06:37:41;;;;;;;2.70;0.70;;;21.90;73.30;;;;;;5900798;22;45534;-58
2023/09/25 06:40:27;;;;;;;1.27;0.75;;;21.90;73.20;;;;;;5913969;22;46258;-59
2023/09/25 06:42:53;;;;;;;1.13;0.60;;;21.90;73.20;;;;;;5917086;22;45248;-59
2023/09/25 06:45:56;;;;;;;1.40;0.80;;;21.90;73.10;;;;;;5945670;22;45447;-59
2023/09/25 06:49:06;;;;;;;1.40;0.70;;;21.90;73.00;;;;;;5885350;22;45330;-59
2023/09/25 06:51:35;;;;;;;1.38;0.63;;;21.80;72.70;;;;;;5894393;22;47393;-61
2023/09/25 06:54:25;;;;;;;1.38;0.80;;;21.80;72.70;;;;;;5897492;22;45309;-60
2023/09/25 06:56:52;;;;;;;2.17;0.80;;;21.80;72.70;;;;;;5858741;22;45331;-59
2023/09/25 06:59:19;;;;;;;1.10;0.77;;;21.90;73.10;;;;;;5890563;22;45425;-60
2023/09/25 07:01:47;;;;;;;1.90;0.70;;;21.90;73.30;;;;;;5877125;22;46552;-59
2023/09/25 07:04:37;;;;;;;1.10;0.70;;;21.90;73.60;;;;;;5903801;22;45339;-59
2023/09/25 07:07:19;;;;;;;0.93;0.68;;;21.90;73.80;;;;;;5879363;22;45306;-58
2023/09/25 07:10:27;;;;;;;1.25;0.70;;;21.90;73.80;;;;;;5872473;22;45266;-58
2023/09/25 07:13:06;;;;;;;0.70;0.65;;;21.90;73.80;;;;;;5903082;22;45604;-58
2023/09/25 07:15:34;;;;;;;1.00;0.90;;;21.90;73.80;;;;;;5868705;22;45204;-58
2023/09/25 07:18:06;;;;;;;0.93;0.73;;;21.90;73.80;;;;;;5884062;22;45419;-58
2023/09/25 07:20:56;;;;;;;1.25;0.88;;;21.90;73.90;;;;;;5882084;22;45274;-58
2023/09/25 07:23:38;;;;;;;0.80;0.65;;;21.90;73.90;;;;;;5899277;22;46083;-58
2023/09/25 07:26:24;;;;;;;0.70;0.50;;;22.00;74.00;;;;;;5869426;22;45057;-59
2023/09/25 07:28:51;;;;;;;0.52;0.40;;;21.90;74.00;;;;;;5901061;22;45487;-58
2023/09/25 07:31:22;;;;;;;1.30;0.70;;;21.90;74.20;;;;;;5892911;22;45430;-58
2023/09/25 07:33:55;;;;;;;0.85;0.57;;;22.00;74.30;;;;;;5900594;22;45606;-59
2023/09/25 07:36:51;;;;;;;1.77;0.60;;;22.00;74.80;;;;;;5898572;22;45248;-58
2023/09/25 07:39:43;;;;;;;1.48;0.65;;;22.00;75.00;;;;;;5909790;22;45179;-60
2023/09/25 07:42:17;;;;;;;1.25;0.70;;;22.00;75.30;;;;;;5865122;22;45275;-59
2023/09/25 07:45:25;;;;;;;5.03;0.80;;;22.00;75.20;;;;;;5878684;22;45738;-57
2023/09/25 07:48:16;;;;;;;20.85;3.25;;;22.00;75.80;;;;;;5864553;22;45319;-60
2023/09/25 07:53:44;;;;;;;7.97;1.23;;;22.10;75.60;;;;;;5882306;22;45322;-63
2023/09/25 07:56:21;;;;;;;7.07;1.15;;;22.10;75.70;;;;;;5888332;22;48046;-63
2023/09/25 07:58:48;;;;;;;3.53;0.80;;;22.10;76.10;;;;;;5913354;22;45415;-63
2023/09/25 08:01:57;;;;;;;2.95;0.93;;;22.10;76.30;;;;;;5874326;22;45484;-63
2023/09/25 08:04:25;;;;;;;5.75;1.02;;;22.00;76.00;;;;;;5885082;22;45096;-64
2023/09/25 08:07:21;;;;;;;1.58;0.80;;;22.10;75.80;;;;;;5890618;22;46950;-63
2023/09/25 08:09:55;;;;;;;3.58;0.90;;;22.00;75.70;;;;;;5907961;22;45422;-63
2023/09/25 08:12:54;;;;;;;2.40;0.70;;;22.00;75.20;;;;;;5873215;22;45245;-63
2023/09/25 08:15:25;;;;;;;3.03;1.02;;;22.00;74.90;;;;;;5897161;22;45320;-63
2023/09/25 08:17:57;;;;;;;3.08;0.80;;;22.00;74.90;;;;;;5871745;22;45402;-64
2023/09/25 08:20:42;;;;;;;2.47;0.77;;;22.10;74.70;;;;;;5889971;22;45315;-63
2023/09/25 08:23:11;;;;;;;1.38;0.63;;;22.10;74.30;;;;;;5867183;22;45569;-63
2023/09/25 08:26:19;;;;;;;1.75;0.90;;;22.10;74.00;;;;;;5895355;22;45375;-62
2023/09/25 08:29:28;;;;;;;1.42;0.63;;;22.10;74.00;;;;;;5863882;22;47259;-63
2023/09/25 08:31:57;;;;;;;1.13;0.82;;;22.10;74.00;;;;;;5870127;22;45190;-63
2023/09/25 08:34:24;;;;;;;0.98;0.60;;;22.10;74.00;;;;;;5872182;22;45296;-63
2023/09/25 08:37:17;;;;;;;2.00;0.70;;;22.10;73.90;;;;;;5937362;22;45315;-62
2023/09/25 08:45:39;;;;;;;1.40;0.68;;;22.00;73.50;;;;;;5888412;22;45261;-63
2023/09/25 09:08:03;;;;;;;2.83;0.70;;;22.10;72.80;;;;;;5289346;22;15044296;-64
2023/09/25 09:10:54;;;;;;;3.83;0.93;;;22.10;72.90;;;;;;5872189;22;45534;-63
2023/09/25 09:13:44;;;;;;;2.17;1.00;;;22.00;72.80;;;;;;5893315;22;45342;-64
2023/09/25 09:16:34;;;;;;;1.63;0.88;;;22.00;72.90;;;;;;5908830;22;45333;-63
2023/09/25 09:19:26;;;;;;;1.33;0.77;;;22.10;73.10;;;;;;5875165;22;47200;-63
2023/09/25 09:22:16;;;;;;;2.58;1.02;;;22.10;72.20;;;;;;5918037;22;45651;-64
2023/09/25 09:25:21;;;;;;;1.20;0.88;;;22.10;72.30;;;;;;5949186;22;45288;-64
2023/09/25 09:28:14;;;;;;;0.85;0.57;;;22.10;72.60;;;;;;5933648;22;45064;-63
2023/09/25 09:30:57;;;;;;;2.10;0.95;;;22.00;72.60;;;;;;5916129;22;45957;-64
2023/09/25 09:33:29;;;;;;;2.53;0.77;;;22.10;72.80;;;;;;5967878;22;45306;-64
2023/09/25 09:36:21;;;;;;;1.75;0.88;;;22.10;72.90;;;;;;5887946;22;45427;-64
2023/09/25 09:44:46;;;;;;;1.90;0.80;;;22.10;73.30;;;;;;5873526;22;45455;-61
2023/09/25 09:47:14;;;;;;;1.33;0.68;;;22.10;73.50;;;;;;5880829;22;45324;-62
2023/09/25 09:49:44;;;;;;;1.90;0.70;;;22.10;73.40;;;;;;5909277;22;45226;-62
2023/09/25 09:52:13;;;;;;;2.10;1.02;;;22.10;73.50;;;;;;5924304;22;45663;-63
2023/09/25 09:54:41;;;;;;;1.65;0.80;;;22.10;73.50;;;;;;5923201;22;45095;-62
2023/09/25 10:01:13;;;;;;;1.85;0.90;;;22.10;73.30;;;;;;5823550;22;45347;-62
2023/09/25 10:03:44;;;;;;;1.70;0.90;;;22.10;73.20;;;;;;5879769;22;46100;-61
2023/09/25 10:10:11;;;;;;;1.90;0.80;;;22.10;73.60;;;;;;5872656;22;45308;-61
2023/09/25 10:12:50;;;;;;;1.88;0.85;;;22.10;73.50;;;;;;5872422;22;45377;-62
2023/09/25 10:15:31;;;;;;;1.17;1.00;;;22.20;73.50;;;;;;5902013;22;47171;-62
2023/09/25 10:19:00;;;;;;;2.67;0.77;;;22.10;73.10;;;;;;5913088;22;45361;-62
2023/09/25 10:22:04;;;;;;;0.85;0.50;;;22.20;73.50;;;;;;5861891;22;45269;-61
2023/09/25 10:24:30;;;;;;;1.13;0.73;;;22.10;73.40;;;;;;5871473;22;45380;-61
2023/09/25 10:30:27;;;;;;;2.00;0.90;;;22.10;73.10;;;;;;5903437;22;45448;-62
2023/09/25 10:33:07;;;;;;;4.40;1.08;;;22.10;73.30;;;;;;5930540;22;45135;-61
2023/09/25 10:36:03;;;;;;;1.30;0.80;;;22.20;73.00;;;;;;5882654;22;45413;-61
2023/09/25 10:38:36;;;;;;;3.92;1.15;;;22.20;73.10;;;;;;5859983;22;47903;-61
2023/09/25 10:41:42;;;;;;;1.65;0.82;;;22.10;73.10;;;;;;5861597;22;45379;-62
2023/09/25 10:44:11;;;;;;;1.15;0.60;;;22.10;73.30;;;;;;5872419;22;45285;-61
2023/09/25 10:46:37;;;;;;;2.58;1.20;;;22.10;73.30;;;;;;5904655;22;45333;-62
2023/09/25 10:49:06;;;;;;;3.75;1.00;;;22.10;73.30;;;;;;5939304;22;45729;-62
2023/09/25 10:52:26;;;;;;;3.05;1.10;;;22.10;73.30;;;;;;5883005;22;45373;-61
2023/09/25 10:55:11;;;;;;;1.50;0.75;;;22.20;73.50;;;;;;5874391;22;45206;-61
2023/09/25 10:57:38;;;;;;;1.73;0.88;;;22.10;73.50;;;;;;5882487;22;45229;-61
2023/09/25 11:00:10;;;;;;;1.50;1.02;;;22.10;73.60;;;;;;5885463;22;47093;-62
2023/09/25 11:05:27;;;;;;;7.53;0.93;;;22.10;73.60;;;;;;5858690;22;45163;-62
2023/09/25 11:08:08;;;;;;;1.70;0.80;;;22.10;73.60;;;;;;5948476;22;45140;-62
2023/09/25 11:10:38;;;;;;;1.20;0.68;;;22.10;74.00;;;;;;5872900;22;46808;-62
2023/09/25 11:13:16;;;;;;;2.10;0.75;;;22.10;74.00;;;;;;5892893;22;45365;-62
2023/09/25 11:15:46;;;;;;;4.53;1.02;;;22.10;74.00;;;;;;5881307;22;45396;-61
2023/09/25 11:18:14;;;;;;;1.48;0.88;;;22.10;73.90;;;;;;5897633;22;45254;-62
2023/09/25 11:20:43;;;;;;;1.05;0.75;;;22.10;74.00;;;;;;5866477;22;46395;-62
2023/09/25 11:26:14;;;;;;;1.88;1.00;;;22.10;74.00;;;;;;5833982;22;45404;-62
2023/09/25 11:29:36;;;;;;;1.00;0.60;;;22.10;73.80;;;;;;5891908;22;45197;-61
2023/09/25 11:32:03;;;;;;;2.78;0.98;;;22.10;73.90;;;;;;5862348;22;45822;-62
2023/09/25 11:35:04;;;;;;;1.63;0.93;;;22.10;74.00;;;;;;5889105;22;45103;-60
2023/09/25 11:40:36;;;;;;;1.63;0.70;;;22.10;74.00;;;;;;5867701;22;45346;-61
2023/09/25 11:43:30;;;;;;;2.28;0.70;;;22.10;73.90;;;;;;5905301;22;45640;-61
2023/09/25 11:46:09;;;;;;;1.02;0.80;;;22.20;73.90;;;;;;5886292;22;45471;-61
2023/09/25 11:48:38;;;;;;;1.58;0.77;;;22.20;73.80;;;;;;5896605;22;45419;-62
2023/09/25 11:51:42;;;;;;;1.83;1.00;;;22.20;73.80;;;;;;5883660;22;45475;-61
2023/09/25 11:54:30;;;;;;;2.58;0.80;;;22.20;73.70;;;;;;5908522;22;46224;-61
2023/09/25 11:57:27;;;;;;;3.30;0.88;;;22.20;73.80;;;;;;5902642;22;45407;-61
2023/09/25 12:00:30;;;;;;;1.58;0.98;;;22.20;73.70;;;;;;5879087;22;45080;-62
2023/09/25 12:02:59;;;;;;;3.80;0.90;;;22.20;73.50;;;;;;5890954;22;45231;-61
2023/09/25 12:05:29;;;;;;;1.23;0.77;;;22.20;73.50;;;;;;5877859;22;46191;-61
2023/09/25 12:08:17;;;;;;;0.88;0.68;;;22.20;73.50;;;;;;5867571;22;45334;-61
2023/09/25 12:13:26;;;;;;;1.52;0.70;;;22.20;73.60;;;;;;5946539;22;45206;-62
2023/09/25 12:15:56;;;;;;;0.98;0.68;;;22.20;73.50;;;;;;5899966;22;46333;-61
2023/09/25 12:18:50;;;;;;;2.92;0.80;;;22.20;73.60;;;;;;5930006;22;45411;-61
2023/09/25 12:21:19;;;;;;;0.73;0.57;;;22.20;73.60;;;;;;5944708;22;45110;-62
2023/09/25 12:23:54;;;;;;;1.38;0.90;;;22.20;73.60;;;;;;5886768;22;45616;-62
2023/09/25 12:26:36;;;;;;;3.15;0.95;;;22.20;73.50;;;;;;5885625;22;46534;-62
2023/09/25 12:29:07;;;;;;;1.05;0.70;;;22.20;73.50;;;;;;5935522;22;45184;-65
2023/09/25 12:31:52;;;;;;;1.42;0.75;;;22.20;73.60;;;;;;5895924;22;45120;-64
2023/09/25 12:34:19;;;;;;;0.98;0.70;;;22.20;73.60;;;;;;5911114;22;45121;-64
2023/09/25 12:36:57;;;;;;;1.77;0.60;;;22.20;73.60;;;;;;5886612;22;47451;-64
2023/09/25 12:39:27;;;;;;;0.95;0.70;;;22.20;73.70;;;;;;5867919;22;45302;-64
2023/09/25 12:42:16;;;;;;;2.28;0.70;;;22.20;73.60;;;;;;5925509;22;45490;-65
2023/09/25 12:44:44;;;;;;;1.40;0.80;;;22.20;73.70;;;;;;5888282;22;45694;-65
2023/09/25 12:47:16;;;;;;;1.08;0.55;;;22.20;73.70;;;;;;5891645;22;45663;-65
2023/09/25 12:49:55;;;;;;;1.27;0.68;;;22.20;73.90;;;;;;5880078;22;45150;-66
2023/09/25 12:52:53;;;;;;;1.52;0.80;;;22.20;73.80;;;;;;5884415;22;45294;-64
2023/09/25 12:55:43;;;;;;;1.85;1.08;;;22.20;73.80;;;;;;5846561;22;45294;-63
2023/09/25 12:58:10;;;;;;;1.15;0.93;;;22.20;73.80;;;;;;5892554;22;46224;-63
2023/09/25 13:00:53;;;;;;;0.93;0.60;;;22.20;73.80;;;;;;5871194;22;45490;-63
2023/09/25 13:03:43;;;;;;;1.50;0.80;;;22.20;73.80;;;;;;5890314;22;45477;-63
2023/09/25 13:06:10;;;;;;;0.90;0.70;;;22.20;73.80;;;;;;5864220;22;45170;-65
2023/09/25 13:09:02;;;;;;;1.05;0.70;;;22.20;73.60;;;;;;5899567;22;46164;-63
2023/09/25 13:11:34;;;;;;;1.38;0.80;;;22.20;73.50;;;;;;5894384;22;45400;-63
2023/09/25 13:14:45;;;;;;;1.23;0.70;;;22.30;73.40;;;;;;5867300;22;45214;-63
2023/09/25 13:20:51;;;;;;;2.38;1.00;;;22.30;73.30;;;;;;5775009;22;45147;-64
2023/09/25 13:23:18;;;;;;;2.67;0.82;;;22.30;73.30;;;;;;5848061;22;45358;-64
2023/09/25 13:25:45;;;;;;;1.45;0.80;;;22.30;73.20;;;;;;5865135;22;45280;-63
2023/09/25 13:28:39;;;;;;;1.15;0.77;;;22.30;73.40;;;;;;5880745;22;44871;-62
2023/09/25 13:31:06;;;;;;;2.38;0.88;;;22.30;73.40;;;;;;5874294;22;46281;-63
2023/09/25 13:34:00;;;;;;;2.65;0.60;;;22.30;73.40;;;;;;5876779;22;45115;-62
2023/09/25 13:37:04;;;;;;;1.17;0.70;;;22.30;73.40;;;;;;5904466;22;45278;-62
2023/09/25 13:39:41;;;;;;;0.93;0.75;;;22.30;73.40;;;;;;5878950;22;44955;-64
2023/09/25 13:42:29;;;;;;;1.85;0.70;;;22.30;73.50;;;;;;5935458;22;45906;-62
2023/09/25 13:44:57;;;;;;;1.08;0.70;;;22.30;73.20;;;;;;5853211;22;45223;-63
2023/09/25 13:47:23;;;;;;;0.95;0.70;;;22.30;73.40;;;;;;5864978;22;45107;-62
2023/09/25 13:49:52;;;;;;;2.00;0.80;;;22.30;73.30;;;;;;5891035;22;44976;-62
2023/09/25 13:55:01;;;;;;;1.77;1.00;;;22.30;73.50;;;;;;5917454;22;45240;-62
2023/09/25 13:58:24;;;;;;;1.17;0.70;;;22.30;73.10;;;;;;5835379;22;45159;-62
2023/09/25 14:01:05;;;;;;;1.52;0.75;;;22.30;73.20;;;;;;5830974;22;45180;-62
2023/09/25 14:03:32;;;;;;;1.17;0.60;;;22.30;73.30;;;;;;5905688;22;46550;-62
2023/09/25 14:06:42;;;;;;;2.13;0.82;;;22.20;73.20;;;;;;5913847;22;45033;-62
2023/09/25 14:09:25;;;;;;;2.03;0.80;;;22.20;73.30;;;;;;5906454;22;45272;-64
2023/09/25 14:12:03;;;;;;;0.90;0.52;;;22.30;73.10;;;;;;5908769;22;44914;-62
2023/09/25 14:15:37;;;;;;;1.60;0.80;;;22.30;72.80;;;;;;5922446;22;46121;-63
2023/09/25 14:18:20;;;;;;;1.10;0.80;;;22.30;72.40;;;;;;5912579;22;45214;-62
2023/09/25 14:20:49;;;;;;;1.15;0.90;;;22.40;72.30;;;;;;5930022;22;45206;-63
2023/09/25 14:23:26;;;;;;;0.77;0.70;;;22.40;72.30;;;;;;5862507;22;45485;-62
2023/09/25 14:29:10;;;;;;;0.90;0.70;;;22.40;71.20;;;;;;5868229;22;45288;-62
2023/09/25 14:31:57;;;;;;;0.93;0.60;;;22.30;70.80;;;;;;5886093;22;45021;-64
2023/09/25 14:34:40;;;;;;;1.25;0.80;;;22.40;70.80;;;;;;5865489;22;45188;-62
2023/09/25 14:37:06;;;;;;;1.27;0.70;;;22.40;70.50;;;;;;5874969;22;46228;-62
2023/09/25 14:40:04;;;;;;;1.02;0.63;;;22.40;70.70;;;;;;5919718;22;45087;-63
2023/09/25 14:43:08;;;;;;;0.90;0.60;;;22.40;70.10;;;;;;5955337;22;45186;-63
2023/09/25 14:45:48;;;;;;;1.25;0.70;;;22.40;70.20;;;;;;5903700;22;45317;-62
2023/09/25 14:52:05;;;;;;;1.65;0.73;;;22.40;70.20;;;;;;6016536;22;45371;-62
2023/09/25 14:54:41;;;;;;;1.60;0.60;;;22.30;70.30;;;;;;5904077;22;45307;-62
2023/09/25 14:57:22;;;;;;;1.48;0.73;;;22.30;70.80;;;;;;5914646;22;45016;-62
2023/09/25 14:59:51;;;;;;;0.90;0.50;;;22.30;70.80;;;;;;5890784;22;46480;-62
2023/09/25 15:02:18;;;;;;;1.67;0.80;;;22.30;70.60;;;;;;5864527;22;45301;-62
2023/09/25 15:05:03;;;;;;;2.05;0.80;;;22.30;70.50;;;;;;6095006;22;45377;-62
2023/09/25 15:07:34;;;;;;;1.92;0.82;;;22.30;70.50;;;;;;5889256;22;45406;-62
2023/09/25 15:10:16;;;;;;;1.95;0.90;;;22.30;70.50;;;;;;5864322;22;45688;-62
2023/09/25 15:13:17;;;;;;;0.90;0.68;;;22.30;70.50;;;;;;5890597;22;45328;-61
2023/09/25 15:16:00;;;;;;;1.20;0.80;;;22.30;70.60;;;;;;5859823;22;45265;-62
2023/09/25 15:18:30;;;;;;;0.90;0.77;;;22.30;70.60;;;;;;5892807;22;45397;-62
2023/09/25 15:21:23;;;;;;;1.25;0.70;;;22.30;70.60;;;;;;5848635;22;46362;-62
2023/09/25 15:23:49;;;;;;;1.40;0.60;;;22.30;70.70;;;;;;5890355;22;44941;-62
2023/09/25 15:26:37;;;;;;;3.08;0.82;;;22.30;70.70;;;;;;5928508;22;45171;-62
2023/09/25 15:29:04;;;;;;;1.67;0.70;;;22.30;70.50;;;;;;5878782;22;45365;-62
2023/09/25 15:31:43;;;;;;;1.55;0.90;;;22.30;70.50;;;;;;5894834;22;47339;-62
2023/09/25 15:34:16;;;;;;;1.38;0.80;;;22.30;70.50;;;;;;5890773;22;45377;-62
2023/09/25 15:36:43;;;;;;;1.00;0.70;;;22.20;70.30;;;;;;5886993;22;45528;-62
2023/09/25 15:39:12;;;;;;;1.55;0.70;;;22.20;70.30;;;;;;5911094;22;45137;-63